Data Viewer
| City | State | Eastern Time | Source | Daily Temp Max | Daily Temp Min | Daily Dew Point Max | Daily Dew Point Min | Daily RH Max | Daily Min RH | Daily BP Max | Daily BP Min | Daily Precip | Daily Wind Max | Daily Wind Max Dir |
|---|---|---|---|---|---|---|---|---|---|---|---|---|---|---|
| Fort Dix | NJ | 2026-04-05 | USFS | 77 | 46 | 64 | 34 | 101 | 52 | 0.30 | 30 | NW | ||
| Fort Dix | NJ | 2026-04-20 | USFS | 54 | 34 | 39 | 17 | 95 | 31 | 0.00 | 20 | NNW | ||
| Fort Dix | NJ | 2026-05-04 | USFS | 76 | 42 | 48 | 29 | 79 | 21 | 0.00 | 19 | WSW | ||
| Fort Dix | NJ | 2026-05-03 | USFS | 61 | 42 | 31 | 20 | 61 | 23 | 0.00 | 25 | W | ||
| Fort Dix | NJ | 2026-05-02 | USFS | 63 | 46 | 47 | 28 | 96 | 29 | 0.00 | 13 | NNW | ||
| Fort Dix | NJ | 2026-05-01 | USFS | 67 | 41 | 48 | 31 | 100 | 28 | 0.00 | 14 | NW | ||
| Fort Dix | NJ | 2026-04-30 | USFS | 65 | 47 | 52 | 44 | 101 | 52 | 0.40 | 20 | WNW | ||
| Fort Dix | NJ | 2026-04-29 | USFS | 66 | 48 | 49 | 37 | 99 | 39 | 0.41 | 15 | S | ||
| Fort Dix | NJ | 2026-04-28 | USFS | 65 | 38 | 43 | 35 | 96 | 35 | 0.00 | 13 | ESE | ||
| Fort Dix | NJ | 2026-04-27 | USFS | E | ||||||||||
| Fort Dix | NJ | 2026-04-23 | USFS | NE | ||||||||||
| Fort Dix | NJ | 2026-04-22 | USFS | 61 | 44 | 52 | 35 | 97 | 64 | 0.11 | 20 | S | ||
| Fort Dix | NJ | 2026-04-21 | USFS | 56 | 28 | 35 | 8 | 74 | 17 | 0.00 | 16 | S | ||
| Fort Dix | NJ | 2026-04-19 | USFS | 53 | 40 | 53 | 36 | 101 | 63 | 0.05 | 36 | WNW | ||
| Fort Dix | NJ | 2026-04-06 | USFS | 59 | 42 | 36 | 23 | 63 | 26 | 0.00 | 24 | NNW | ||
| Fort Dix | NJ | 2026-04-18 | USFS | 65 | 48 | 55 | 48 | 101 | 61 | 0.00 | 18 | ESE | ||
| Fort Dix | NJ | 2026-04-17 | USFS | 85 | 58 | 62 | 50 | 89 | 32 | 0.00 | 17 | NNW | ||
| Fort Dix | NJ | 2026-04-16 | USFS | 94 | 67 | 63 | 53 | 75 | 26 | 0.00 | 22 | SW | ||
| Fort Dix | NJ | 2026-04-15 | USFS | 91 | 63 | 63 | 56 | 94 | 32 | 0.00 | 20 | SW | ||
| Fort Dix | NJ | 2026-04-14 | USFS | 89 | 60 | 59 | 52 | 78 | 31 | 0.00 | 20 | SW | ||
| Fort Dix | NJ | 2026-04-13 | USFS | 81 | 44 | 60 | 41 | 90 | 38 | 0.02 | 27 | SSW | ||
| Fort Dix | NJ | 2026-04-12 | USFS | 62 | 41 | 42 | 27 | 92 | 36 | 0.00 | 18 | ESE | ||
| Fort Dix | NJ | 2026-04-11 | USFS | 66 | 44 | 47 | 25 | 89 | 23 | 0.00 | 24 | NNW | ||
| Fort Dix | NJ | 2026-04-10 | USFS | 75 | 40 | 45 | 31 | 96 | 26 | 0.00 | 16 | SSW | ||
| Fort Dix | NJ | 2026-04-09 | USFS | 56 | 28 | 41 | 26 | 98 | 43 | 0.00 | 15 | SE | ||
| Fort Dix | NJ | 2026-04-08 | USFS | 49 | 28 | 28 | 12 | 89 | 26 | 0.00 | 18 | N | ||
| Fort Dix | NJ | 2026-04-07 | USFS | 57 | 36 | 40 | 8 | 80 | 16 | 0.00 | 27 | NW | ||
| Fort Dix | NJ | 2026-05-05 | USFS | 60 | 57 | 52 | 48 | 81 | 66 | 0.00 | 14 | SSW |
data collection created in 0.018776893615723 (queried in 0.012822) rendered in: 5.6982040405273E-5

